• Join FlightAware (Why Join?)
  • Login
  • US Flag 
11:03AM EDT


 

Airport Tracker/Info


-or-


 

Live Flight TrackerFlight Track Log ✈ QLK170 ✈ 07-Oct-2013 ✈ YSSY / SYD - YPMQ / PQQ

Flight Track Log - Related Links

Times and Time Zones

All times are in EDT time to prevent confusion due to time zone crossing. See the QLK170 flight status page for this flight to view local times or setup timezone preferences in your user account.

Time Position Orientation Groundspeed Altitude Reporting Facility
EDT Latitude Longitude Course Direction KTS MPH feet Rate Location/Type
09:37PM -33.9820 151.2264 86° East 149 171 1,500  Level Aus ATC (RADAR)
09:38PM -33.9777 151.3075 86° East 189 217 3,200 1,200 Climbing Aus ATC (RADAR)
09:39PM -33.9628 151.3186 32° Northeast 200 230 3,600 1,320 Climbing Aus ATC (RADAR)
09:39PM -33.9330 151.3336 23° Northeast 197 227 4,400 1,380 Climbing Aus ATC (RADAR)
09:40PM -33.8946 151.3511 21° North 192 221 5,500 1,320 Climbing Aus ATC (RADAR)
09:41PM -33.8588 151.3671 20° North 200 230 6,400 1,260 Climbing Aus ATC (RADAR)
09:42PM -33.8165 151.3858 20° North 200 230 7,400 1,080 Climbing Aus ATC (RADAR)
09:42PM -33.8015 151.3923 20° North 208 239 7,600 1,080 Climbing Aus ATC (RADAR)
09:44PM -33.6986 151.4383 20° North 215 247 9,700 1,020 Climbing Aus ATC (RADAR)
09:44PM -33.6747 151.4487 20° North 219 252 10,000 780 Climbing Aus ATC (RADAR)
09:45PM -33.6005 151.4810 20° North 228 262 11,100 840 Climbing Aus ATC (RADAR)
09:46PM -33.5718 151.4936 20° North 229 264 11,500 780 Climbing Aus ATC (RADAR)
09:47PM -33.4874 151.5306 20° North 230 265 12,600 780 Climbing Aus ATC (RADAR)
09:48PM -33.4248 151.5580 20° North 235 270 13,500 720 Climbing Aus ATC (RADAR)
09:49PM -33.3752 151.5803 21° North 234 269 14,000 600 Climbing Aus ATC (RADAR)
09:49PM -33.3544 151.5892 20° North 235 270 14,200 660 Climbing Aus ATC (RADAR)
09:50PM -33.3218 151.6031 20° North 237 273 14,600 780 Climbing Aus ATC (RADAR)
09:51PM -33.2554 151.6328 20° North 237 273 15,500 780 Climbing Aus ATC (RADAR)
09:52PM -33.2193 151.6484 20° North 235 270 15,900 600 Climbing Aus ATC (RADAR)
09:53PM -33.1000 151.7012 20° North 241 277 17,000 420 Climbing Aus ATC (RADAR)
09:54PM -33.0650 151.7163 20° North 253 291 17,000  Level Aus ATC (RADAR)
09:54PM -33.0423 151.7263 20° North 259 298 17,000  Level Aus ATC (RADAR)
09:55PM -33.0008 151.7445 20° North 270 311 17,000  Level Aus ATC (RADAR)
09:56PM -32.9290 151.7758 20° North 280 322 17,000  Level Aus ATC (RADAR)
09:56PM -32.8858 151.7948 20° North 283 326 17,000  Level Aus ATC (RADAR)
09:57PM -32.8162 151.8247 20° North 285 328 17,000  Level Aus ATC (RADAR)
09:59PM -32.7181 151.8948 31° Northeast 289 333 17,000  Level Aus ATC (RADAR)
09:59PM -32.7010 151.9082 33° Northeast 290 334 17,000  Level Aus ATC (RADAR)
10:00PM -32.6612 151.9386 33° Northeast 290 334 17,000  Level Aus ATC (RADAR)
10:01PM -32.5985 151.9860 33° Northeast 289 333 17,000  Level Aus ATC (RADAR)
10:01PM -32.5587 152.0168 33° Northeast 289 333 17,000  Level Aus ATC (RADAR)
10:03PM -32.4617 152.0911 33° Northeast 290 334 17,000  Level Aus ATC (RADAR)
10:05PM -32.3019 152.2136 33° Northeast 288 331 17,000  Level Aus ATC (RADAR)
10:05PM -32.2689 152.2382 32° Northeast 291 335 17,000 -180 Level Aus ATC (RADAR)
10:07PM -32.1769 152.3087 33° Northeast 289 333 16,700 -1,020 Descending Aus ATC (RADAR)
10:08PM -32.0864 152.3777 33° Northeast 318 366 14,500 -1,740 Descending Aus ATC (RADAR)
10:10PM -31.9375 152.4894 32° Northeast 306 352 11,200 -1,680 Descending Aus ATC (RADAR)
10:10PM -31.9147 152.5071 33° Northeast 310 357 10,600 -1,560 Descending Aus ATC (RADAR)
10:12PM -31.8201 152.5797 33° Northeast 287 330 8,600 -1,500 Descending Aus ATC (RADAR)
10:12PM -31.8032 152.5921 32° Northeast 285 328 8,200 -1,500 Descending Aus ATC (RADAR)
10:13PM -31.7432 152.6361 32° Northeast 272 313 6,900 -1,440 Descending Aus ATC (RADAR)
10:13PM -31.7273 152.6483 33° Northeast 269 310 6,500 -1,380 Descending Aus ATC (RADAR)
10:14PM -31.6705 152.6903 32° Northeast 257 296 5,300 -1,500 Descending Aus ATC (RADAR)
10:15PM -31.6244 152.7250 33° Northeast 269 310 4,100 -1,500 Descending Aus ATC (RADAR)
10:15PM -31.5883 152.7531 34° Northeast 255 293 3,300 -1,320 Descending Aus ATC (RADAR)
10:16PM -31.5383 152.7880 31° Northeast 235 270 2,200 -1,200 Descending Aus ATC (RADAR)
10:16PM -31.5252 152.7961 28° Northeast 227 261 2,000 -600 Descending Aus ATC (RADAR)
10:17PM -31.4966 152.8170 32° Northeast 202 232 1,700 -360 Descending Aus ATC (RADAR)
10:18PM -31.4864 152.8651 76° East 165 190 1,500 -120 Descending Aus ATC (RADAR)
10:19PM -31.4368 152.9145 40° Northeast 175 201 1,500  Level Aus ATC (RADAR)
10:20PM -31.4232 152.9241 31° Northeast 181 208 1,500 -240 Level Aus ATC (RADAR)
10:20PM -31.3976 152.9288 North 176 203 1,300 -420 Descending Aus ATC (RADAR)
10:21PM -31.3940 152.8897 276° West 121 139 900 -540 Descending Aus ATC (RADAR)
10:22PM -31.4096 152.8786 211° Southwest 113 130 500 -540 Descending Aus ATC (RADAR)
10:22PM -31.4255 152.8685 208° Southwest 91 105 200 -420 Descending Aus ATC (RADAR)
10:24PM -31.4359 152.8634 262° West  Level FlightAware Approximate
10:31PM -31.4358 152.8633 262° West  Level Estimated
10:32PM -31.4358 152.8633 262° West  Level Estimated
10:33PM -31.4358 152.8633 262° West  Level Estimated
10:34PM -31.4358 152.8633 262° West  Level Estimated
10:35PM -31.4358 152.8633 262° West  Level Estimated
10:36PM -31.4358 152.8633 262° West  Level Estimated
10:37PM -31.4358 152.8633 262° West  Level Estimated